Time;durP1;ratioP1;P1;durP2;ratioP2;P2;SDS_P1;SDS_P2;PMS_P1;PMS_P2;Temp;Humidity;BMP_temperature;BMP_pressure;BME280_temperature;BME280_humidity;BME280_pressure;Samples;Min_cycle;Max_cycle;Signal;HPM_P1;HPM_P2
2022/09/10 00:00:39;;;;;;;3.37;1.00;;;12.10;99.90;;;;;;5117487;28;20180;-83
2022/09/10 00:03:05;;;;;;;3.67;1.10;;;12.10;99.90;;;;;;5117505;28;20207;-84
2022/09/10 00:05:38;;;;;;;5.27;1.10;;;12.10;99.90;;;;;;5118449;28;20251;-85
2022/09/10 00:08:05;;;;;;;1.87;1.33;;;12.20;99.90;;;;;;5117313;28;20168;-85
2022/09/10 00:10:36;;;;;;;2.00;1.00;;;12.20;99.90;;;;;;5117488;28;20177;-84
2022/09/10 00:13:02;;;;;;;3.30;1.30;;;12.20;99.90;;;;;;5117384;28;20178;-85
2022/09/10 00:15:28;;;;;;;2.47;1.20;;;12.20;99.90;;;;;;5116587;28;20211;-84
2022/09/10 00:17:54;;;;;;;1.30;1.20;;;;;;;;;;5117183;28;20175;-84
2022/09/10 00:20:19;;;;;;;3.67;1.50;;;12.10;99.90;;;;;;5117971;28;20232;-85
2022/09/10 00:22:47;;;;;;;3.97;1.10;;;;;;;;;;5118535;28;20286;-85
2022/09/10 00:25:14;;;;;;;1.10;1.00;;;12.10;99.90;;;;;;5117116;28;20200;-85
2022/09/10 00:27:40;;;;;;;1.47;0.83;;;12.10;99.90;;;;;;5115856;28;20163;-85
2022/09/10 00:30:06;;;;;;;1.40;0.77;;;12.10;99.90;;;;;;5118684;28;20179;-85
2022/09/10 00:32:33;;;;;;;4.03;0.80;;;12.10;99.90;;;;;;5116095;28;20718;-85
2022/09/10 00:35:00;;;;;;;3.03;0.80;;;12.00;99.90;;;;;;5116361;28;20210;-84
2022/09/10 00:37:26;;;;;;;3.53;0.83;;;12.00;99.90;;;;;;5117281;28;20175;-85
2022/09/10 00:39:52;;;;;;;2.87;1.03;;;;;;;;;;5116508;28;20175;-85
2022/09/10 00:42:17;;;;;;;1.23;0.90;;;11.90;99.90;;;;;;5116709;28;20684;-83
2022/09/10 00:44:43;;;;;;;9.27;1.30;;;11.90;99.90;;;;;;5116094;28;20202;-84
2022/09/10 00:47:26;;;;;;;3.90;1.07;;;11.90;99.90;;;;;;5116820;28;20167;-84
2022/09/10 00:49:57;;;;;;;1.23;0.93;;;11.90;99.90;;;;;;5118050;28;20205;-84
2022/09/10 00:52:23;;;;;;;4.87;1.17;;;11.80;99.90;;;;;;5116229;28;20211;-84
2022/09/10 00:54:49;;;;;;;1.17;1.03;;;11.90;99.90;;;;;;5116742;28;20647;-84
2022/09/10 00:57:19;;;;;;;2.67;1.30;;;11.80;99.90;;;;;;5116174;28;20220;-85
2022/09/10 00:59:54;;;;;;;4.00;1.30;;;11.80;99.90;;;;;;5117676;28;20242;-85
2022/09/10 01:02:20;;;;;;;2.83;1.30;;;11.80;99.90;;;;;;5116798;28;20202;-85
2022/09/10 01:04:46;;;;;;;3.53;1.20;;;;;;;;;;5117185;28;20327;-86
2022/09/10 01:07:14;;;;;;;4.40;1.20;;;11.70;99.90;;;;;;5117437;28;20203;-84
2022/09/10 01:09:40;;;;;;;1.33;1.10;;;11.70;99.90;;;;;;5119323;28;20163;-84
2022/09/10 01:12:33;;;;;;;2.13;1.47;;;11.60;99.90;;;;;;5118643;28;20282;-84
2022/09/10 01:15:17;;;;;;;2.77;1.23;;;11.60;99.90;;;;;;5120448;28;20164;-84
2022/09/10 01:18:02;;;;;;;2.27;1.20;;;11.60;99.90;;;;;;5121099;28;20159;-84
2022/09/10 01:20:46;;;;;;;2.30;1.00;;;11.50;99.90;;;;;;5121118;28;20212;-83
2022/09/10 01:23:24;;;;;;;1.33;1.00;;;11.50;99.90;;;;;;5122729;28;20523;-85
2022/09/10 01:25:50;;;;;;;3.07;1.10;;;11.50;99.90;;;;;;5114951;28;20240;-85
2022/09/10 06:09:45;;;;;;;1.03;0.80;;;12.00;99.90;;;;;;5158751;27;20604;-84
2022/09/10 06:12:11;;;;;;;6.67;1.00;;;12.10;99.90;;;;;;5148310;27;20297;-84
2022/09/10 06:14:37;;;;;;;1.73;1.00;;;12.10;99.90;;;;;;5157056;27;20638;-84
2022/09/10 06:17:03;;;;;;;1.10;1.00;;;12.20;99.90;;;;;;5155924;27;20178;-85
2022/09/10 06:19:29;;;;;;;3.17;1.20;;;12.20;99.90;;;;;;5155359;27;20178;-85
2022/09/10 06:21:54;;;;;;;1.80;1.10;;;12.30;99.90;;;;;;5155480;27;20205;-85
2022/09/10 06:24:21;;;;;;;0.93;0.90;;;12.30;99.90;;;;;;5155501;27;20651;-84
2022/09/10 06:26:48;;;;;;;1.30;0.80;;;12.30;99.90;;;;;;5156568;27;20170;-85
2022/09/10 06:29:14;;;;;;;1.83;0.80;;;12.30;99.90;;;;;;5157367;27;20538;-85
2022/09/10 06:31:40;;;;;;;1.67;1.07;;;12.30;99.90;;;;;;5156212;27;20197;-85
2022/09/10 06:34:06;;;;;;;2.70;1.10;;;;;;;;;;5156573;27;20219;-85
2022/09/10 06:36:32;;;;;;;0.80;0.63;;;12.40;99.90;;;;;;5155772;27;20611;-85
2022/09/10 06:38:58;;;;;;;5.23;0.87;;;12.40;99.90;;;;;;5154393;27;20691;-84
2022/09/10 06:41:25;;;;;;;1.33;0.87;;;12.50;99.90;;;;;;5153314;27;20225;-85
2022/09/10 06:43:51;;;;;;;2.50;1.00;;;12.60;99.90;;;;;;5153550;27;20174;-85
2022/09/10 06:46:18;;;;;;;1.63;1.07;;;12.70;99.90;;;;;;5153455;27;20177;-85
2022/09/10 06:48:44;;;;;;;1.10;0.70;;;12.80;99.90;;;;;;5156058;27;20229;-85
2022/09/10 06:51:11;;;;;;;1.07;0.77;;;12.90;99.90;;;;;;5155277;27;20205;-85
2022/09/10 06:53:39;;;;;;;1.33;0.90;;;12.90;99.90;;;;;;5157200;27;20209;-84
2022/09/10 06:56:09;;;;;;;0.57;0.57;;;13.00;99.90;;;;;;5159606;27;20169;-86
2022/09/10 06:58:35;;;;;;;0.93;0.93;;;13.20;99.90;;;;;;5155667;27;20188;-85
2022/09/10 07:01:30;;;;;;;0.60;0.60;;;13.20;99.90;;;;;;5158704;27;20237;-85
2022/09/10 07:03:58;;;;;;;1.17;0.70;;;13.30;99.90;;;;;;5138096;27;20293;-86
2022/09/10 07:06:25;;;;;;;2.00;0.70;;;13.30;99.90;;;;;;5153985;27;20174;-85
2022/09/10 07:08:57;;;;;;;0.77;0.70;;;13.40;99.90;;;;;;5153699;27;20208;-85
2022/09/10 07:11:24;;;;;;;1.33;0.80;;;13.50;99.90;;;;;;5154150;27;20226;-85
2022/09/10 07:13:51;;;;;;;3.97;0.80;;;13.50;99.90;;;;;;5153143;27;20175;-86
2022/09/10 07:16:21;;;;;;;0.70;0.70;;;13.60;99.90;;;;;;5152797;27;20632;-86
2022/09/10 07:18:50;;;;;;;1.33;0.70;;;13.60;99.90;;;;;;5154325;27;20174;-87
2022/09/10 07:21:18;;;;;;;1.10;0.80;;;13.60;99.90;;;;;;5138706;27;20213;-86
2022/09/10 07:23:47;;;;;;;1.50;0.70;;;13.60;99.90;;;;;;5140844;27;20177;-86
2022/09/10 07:26:15;;;;;;;1.27;0.50;;;13.60;99.90;;;;;;5141359;27;20171;-85
2022/09/10 07:28:42;;;;;;;2.80;0.70;;;13.80;99.90;;;;;;5140624;27;20234;-85
2022/09/10 07:31:13;;;;;;;1.13;0.80;;;13.70;99.90;;;;;;5140483;27;20194;-84
2022/09/10 07:33:39;;;;;;;5.73;0.90;;;13.80;99.90;;;;;;5139763;27;20174;-85
2022/09/10 07:36:05;;;;;;;2.17;0.77;;;14.10;99.90;;;;;;5138229;27;20206;-84
2022/09/10 07:38:31;;;;;;;1.23;1.13;;;14.20;99.90;;;;;;5139461;27;20175;-85
2022/09/10 07:41:00;;;;;;;1.67;0.90;;;14.40;99.90;;;;;;5139957;27;20203;-85
2022/09/10 07:43:25;;;;;;;0.97;0.57;;;14.40;99.90;;;;;;5138730;27;20186;-87
2022/09/10 07:45:51;;;;;;;4.03;0.90;;;14.40;99.90;;;;;;5139600;27;20179;-87
2022/09/10 07:48:17;;;;;;;1.37;1.03;;;14.40;99.90;;;;;;5138858;27;20205;-84
2022/09/10 07:50:43;;;;;;;0.73;0.70;;;14.40;99.90;;;;;;5138242;27;20228;-83
2022/09/10 07:53:08;;;;;;;2.43;0.80;;;14.30;99.90;;;;;;5139790;27;20174;-84
2022/09/10 07:55:35;;;;;;;1.27;0.80;;;;;;;;;;5137985;27;20186;-83
2022/09/10 07:58:00;;;;;;;2.57;1.23;;;14.50;99.90;;;;;;5139930;27;20206;-83
2022/09/10 08:00:26;;;;;;;1.10;0.90;;;14.60;99.90;;;;;;5144743;27;20182;-80
2022/09/10 08:02:52;;;;;;;1.37;0.90;;;14.70;99.90;;;;;;5140454;27;20228;-85
2022/09/10 08:05:18;;;;;;;0.63;0.63;;;;;;;;;;5139616;27;20185;-86
2022/09/10 08:07:43;;;;;;;1.93;0.80;;;14.60;99.90;;;;;;5138877;27;20237;-85
2022/09/10 08:10:10;;;;;;;3.70;0.70;;;14.60;99.90;;;;;;5138539;27;20174;-84
2022/09/10 08:12:36;;;;;;;2.73;0.73;;;14.50;99.90;;;;;;5141251;27;20198;-87
2022/09/10 08:15:03;;;;;;;1.13;0.80;;;14.50;99.90;;;;;;5140028;27;20179;-86
2022/09/10 08:17:29;;;;;;;1.43;0.60;;;14.60;99.90;;;;;;5140890;27;20175;-86
2022/09/10 08:19:55;;;;;;;0.73;0.53;;;14.60;99.90;;;;;;5140444;27;20181;-86
2022/09/10 08:22:21;;;;;;;0.83;0.57;;;14.50;99.90;;;;;;5142161;27;20218;-86
2022/09/10 08:24:48;;;;;;;1.70;0.80;;;;;;;;;;5142946;27;20177;-86
2022/09/10 08:27:14;;;;;;;0.83;0.70;;;14.60;99.90;;;;;;5143222;27;20171;-85
2022/09/10 08:29:41;;;;;;;0.70;0.60;;;;;;;;;;5144423;27;20202;-87
2022/09/10 08:32:07;;;;;;;1.03;0.57;;;;;;;;;;5143163;27;20194;-86
2022/09/10 08:34:33;;;;;;;1.77;0.60;;;14.50;99.90;;;;;;5141777;27;20179;-86
2022/09/10 08:37:00;;;;;;;1.33;0.60;;;;;;;;;;5138155;27;20599;-84
2022/09/10 08:39:26;;;;;;;1.57;0.70;;;14.40;99.90;;;;;;5137997;27;20275;-83
2022/09/10 08:42:00;;;;;;;1.57;0.60;;;14.30;99.90;;;;;;5137544;27;20225;-83
2022/09/10 08:44:42;;;;;;;1.43;0.80;;;14.20;99.90;;;;;;5138147;27;20182;-84
2022/09/10 08:47:45;;;;;;;2.33;0.90;;;14.20;99.90;;;;;;5139338;27;20181;-84
2022/09/10 08:50:12;;;;;;;1.57;0.70;;;14.10;99.90;;;;;;5139553;27;20174;-85
2022/09/10 08:52:47;;;;;;;1.07;0.73;;;14.10;99.90;;;;;;5138384;27;20190;-85
2022/09/10 08:55:16;;;;;;;0.80;0.60;;;14.10;99.90;;;;;;5138221;27;20194;-85
2022/09/10 08:57:53;;;;;;;2.53;0.70;;;14.10;99.90;;;;;;5136359;27;20612;-85
2022/09/10 09:00:25;;;;;;;1.13;0.80;;;14.20;99.90;;;;;;5138499;27;20163;-85
2022/09/10 09:03:06;;;;;;;0.67;0.60;;;14.20;99.90;;;;;;5136890;27;20218;-85
2022/09/10 09:05:57;;;;;;;1.17;0.60;;;14.30;99.90;;;;;;5137804;27;20520;-86
2022/09/10 09:08:26;;;;;;;2.27;0.90;;;14.30;99.90;;;;;;5135474;27;20242;-86
2022/09/10 09:11:18;;;;;;;2.43;0.57;;;14.20;99.90;;;;;;5136245;27;20195;-86
2022/09/10 09:14:09;;;;;;;1.80;0.87;;;14.20;99.90;;;;;;5136242;27;20220;-87
2022/09/10 09:16:34;;;;;;;0.60;0.50;;;14.10;99.90;;;;;;5135726;27;20177;-86
2022/09/10 09:19:25;;;;;;;0.93;0.70;;;14.10;99.90;;;;;;5135664;27;20555;-86
2022/09/10 09:21:55;;;;;;;1.03;0.67;;;14.30;99.90;;;;;;5136232;27;20675;-87
2022/09/10 09:24:35;;;;;;;0.90;0.67;;;14.30;99.90;;;;;;5135496;27;20186;-86
2022/09/10 09:27:08;;;;;;;0.80;0.70;;;14.30;99.90;;;;;;5135706;27;20173;-85
2022/09/10 09:29:44;;;;;;;1.27;0.80;;;14.20;99.90;;;;;;5136068;27;20190;-86
2022/09/10 09:32:14;;;;;;;27.13;15.77;;;14.20;99.90;;;;;;5136449;27;20182;-87
2022/09/10 09:35:08;;;;;;;2.00;1.20;;;14.30;99.90;;;;;;5135740;27;20250;-86
2022/09/10 09:37:36;;;;;;;4.77;2.00;;;14.20;99.90;;;;;;5136813;27;20167;-87
2022/09/10 09:40:11;;;;;;;2.50;1.03;;;14.20;99.90;;;;;;5137093;27;20628;-85
2022/09/10 09:42:51;;;;;;;2.20;0.70;;;14.20;99.90;;;;;;5134893;27;20198;-85
2022/09/10 09:45:17;;;;;;;4.73;0.93;;;14.20;99.90;;;;;;5135226;27;20612;-85
2022/09/10 09:47:49;;;;;;;0.70;0.70;;;14.20;99.90;;;;;;5135810;27;20259;-83
2022/09/10 09:50:17;;;;;;;7.83;6.93;;;14.40;99.90;;;;;;5141648;27;20171;-86
2022/09/10 09:52:44;;;;;;;15.97;8.60;;;14.10;99.90;;;;;;5139520;27;20199;-84
2022/09/10 09:55:42;;;;;;;4.17;3.77;;;14.10;99.90;;;;;;5145984;27;20166;-87
2022/09/10 09:58:25;;;;;;;3.27;1.60;;;14.10;99.90;;;;;;5125951;27;20179;-85
2022/09/10 10:01:09;;;;;;;2.63;0.87;;;14.20;99.90;;;;;;5139393;27;20194;-84
2022/09/10 10:03:53;;;;;;;2.03;1.37;;;14.20;99.90;;;;;;5141921;27;20159;-84
2022/09/10 10:06:43;;;;;;;2.33;1.70;;;14.20;99.90;;;;;;5136464;28;20194;-84
2022/09/10 10:09:41;;;;;;;4.20;1.73;;;14.20;99.90;;;;;;5136127;28;20207;-84
2022/09/10 10:12:20;;;;;;;2.67;0.83;;;14.10;99.90;;;;;;5124854;27;20207;-84
2022/09/10 10:14:46;;;;;;;4.43;1.63;;;14.20;99.90;;;;;;5135865;28;20247;-85
2022/09/10 10:17:30;;;;;;;2.80;1.40;;;14.50;99.90;;;;;;5137474;28;20564;-84
2022/09/10 10:20:00;;;;;;;1.70;0.90;;;14.30;99.90;;;;;;5137412;28;20167;-85
2022/09/10 10:22:29;;;;;;;2.70;0.90;;;14.40;99.90;;;;;;5137164;28;20601;-84
2022/09/10 10:24:54;;;;;;;2.40;1.03;;;14.50;99.90;;;;;;5135754;28;20171;-85
2022/09/10 10:27:41;;;;;;;1.13;0.80;;;14.50;99.90;;;;;;5135082;28;20211;-85
2022/09/10 10:30:16;;;;;;;5.30;0.93;;;14.30;99.90;;;;;;5134745;28;20174;-85
2022/09/10 10:32:55;;;;;;;2.10;0.90;;;14.70;99.90;;;;;;5134609;28;20678;-85
2022/09/10 10:35:50;;;;;;;1.20;1.00;;;15.10;99.90;;;;;;5135121;28;20178;-85
2022/09/10 10:38:24;;;;;;;1.73;1.00;;;14.80;99.90;;;;;;5135669;28;20681;-86
2022/09/10 10:40:50;;;;;;;2.13;0.80;;;14.90;99.90;;;;;;5136600;28;20159;-84
2022/09/10 10:43:53;;;;;;;2.47;0.87;;;14.90;99.90;;;;;;5135177;28;20179;-85
2022/09/10 10:46:21;;;;;;;1.60;1.00;;;14.90;99.90;;;;;;5138594;28;20178;-85
2022/09/10 10:48:59;;;;;;;1.60;0.83;;;14.70;99.90;;;;;;5138617;27;20210;-85
2022/09/10 10:51:52;;;;;;;2.13;1.23;;;14.80;99.90;;;;;;5138223;27;20202;-85
2022/09/10 10:54:36;;;;;;;1.90;0.90;;;14.70;99.90;;;;;;5140138;27;20197;-85
2022/09/10 10:57:10;;;;;;;1.90;0.80;;;14.70;99.90;;;;;;5142392;27;20171;-85
2022/09/10 10:59:45;;;;;;;2.53;1.00;;;14.80;99.90;;;;;;5141710;27;20170;-86
2022/09/10 11:02:20;;;;;;;2.17;0.97;;;;;;;;;;5141505;27;20217;-85
2022/09/10 11:04:49;;;;;;;1.60;1.03;;;15.20;99.90;;;;;;5146038;27;20625;-85
2022/09/10 11:07:23;;;;;;;1.70;0.93;;;15.10;99.90;;;;;;5146745;27;20178;-87
2022/09/10 11:10:02;;;;;;;2.87;1.20;;;14.90;99.90;;;;;;5144453;27;20202;-86
2022/09/10 11:12:31;;;;;;;2.90;1.30;;;15.00;99.90;;;;;;5148814;27;20193;-86
2022/09/10 11:15:33;;;;;;;1.33;0.70;;;15.00;99.90;;;;;;5144076;27;20178;-85
2022/09/10 11:18:37;;;;;;;1.30;0.83;;;15.00;99.90;;;;;;5109985;27;20235;-84
2022/09/10 11:21:12;;;;;;;3.03;1.03;;;15.10;99.90;;;;;;5142035;27;20202;-83
2022/09/10 11:23:44;;;;;;;2.20;1.10;;;15.50;99.90;;;;;;5146076;27;20244;-84
2022/09/10 11:26:27;;;;;;;1.53;0.80;;;15.20;99.90;;;;;;5140689;27;20170;-84
2022/09/10 11:29:33;;;;;;;2.13;1.10;;;15.50;99.90;;;;;;5142453;27;20224;-85
2022/09/10 11:32:09;;;;;;;1.43;0.93;;;15.90;99.90;;;;;;5062775;28;20197;-85
2022/09/10 11:34:59;;;;;;;4.83;1.00;;;16.20;99.90;;;;;;5133031;27;20238;-85
2022/09/10 11:37:54;;;;;;;2.63;1.03;;;16.70;99.90;;;;;;5142393;27;20509;-85
2022/09/10 11:40:52;;;;;;;1.47;0.90;;;17.20;99.90;;;;;;5123891;27;20177;-84
2022/09/10 11:43:41;;;;;;;2.17;0.90;;;17.40;99.90;;;;;;5123309;27;20239;-84
2022/09/10 11:46:15;;;;;;;1.40;0.80;;;19.00;99.90;;;;;;5140927;27;20632;-84
2022/09/10 11:49:06;;;;;;;1.67;1.10;;;19.00;99.90;;;;;;5141985;27;20188;-84
2022/09/10 11:51:36;;;;;;;2.37;1.00;;;19.70;99.90;;;;;;5140297;27;20612;-86
2022/09/10 11:54:12;;;;;;;2.73;1.10;;;19.30;99.90;;;;;;5139595;27;20532;-86
2022/09/10 11:56:53;;;;;;;3.70;1.10;;;18.90;99.90;;;;;;5139753;27;20177;-84
2022/09/10 11:59:30;;;;;;;2.60;1.20;;;18.80;99.90;;;;;;5140198;27;20223;-86
2022/09/10 12:02:33;;;;;;;3.20;1.17;;;19.00;99.90;;;;;;5139892;27;20288;-86
2022/09/10 12:05:22;;;;;;;1.70;0.77;;;19.30;99.90;;;;;;5141757;27;20170;-86
2022/09/10 12:08:13;;;;;;;0.70;0.70;;;19.80;99.90;;;;;;5142314;27;20182;-86
2022/09/10 12:10:59;;;;;;;1.60;0.90;;;19.20;99.90;;;;;;5144110;27;20256;-86
2022/09/10 12:13:25;;;;;;;1.13;0.80;;;19.30;99.90;;;;;;5141766;27;20657;-86
2022/09/10 12:15:55;;;;;;;1.67;0.80;;;20.00;99.90;;;;;;5138436;27;20179;-83
2022/09/10 12:18:35;;;;;;;1.77;0.90;;;20.00;99.90;;;;;;5138937;27;20260;-86
2022/09/10 12:21:08;;;;;;;1.30;0.80;;;20.00;99.90;;;;;;5139734;27;20193;-82
2022/09/10 12:23:38;;;;;;;0.97;0.80;;;19.90;99.90;;;;;;5139205;27;20620;-83
2022/09/10 12:26:11;;;;;;;1.60;0.60;;;19.70;99.90;;;;;;5137561;27;20167;-83
2022/09/10 12:28:44;;;;;;;1.97;0.80;;;19.00;99.90;;;;;;5138792;27;20151;-82
2022/09/10 12:31:12;;;;;;;1.13;0.80;;;18.50;99.90;;;;;;5137971;27;20198;-84
2022/09/10 12:33:41;;;;;;;1.23;0.70;;;18.50;99.90;;;;;;5138825;27;20266;-84
2022/09/10 12:36:07;;;;;;;1.70;0.80;;;;;;;;;;5137369;27;20183;-84
2022/09/10 12:38:46;;;;;;;1.30;0.80;;;18.50;99.90;;;;;;5137375;27;20213;-84
2022/09/10 12:41:33;;;;;;;2.23;0.80;;;18.20;99.90;;;;;;5139036;27;20683;-84
2022/09/10 12:44:34;;;;;;;2.47;0.77;;;18.10;99.90;;;;;;5137388;27;20181;-84
2022/09/10 12:47:15;;;;;;;1.43;0.70;;;18.10;99.90;;;;;;5132003;27;20241;-85
2022/09/10 12:49:51;;;;;;;3.10;0.90;;;18.60;99.90;;;;;;5139509;27;20649;-85
2022/09/10 12:52:40;;;;;;;1.17;0.80;;;18.90;99.90;;;;;;5137893;27;20194;-86
2022/09/10 12:55:47;;;;;;;4.20;1.13;;;18.60;99.90;;;;;;5136933;27;20583;-86
2022/09/10 12:58:34;;;;;;;2.10;0.70;;;17.70;99.90;;;;;;5136844;27;20198;-87
2022/09/10 13:01:15;;;;;;;2.13;0.80;;;18.00;99.90;;;;;;5136870;27;20201;-87
2022/09/10 13:03:53;;;;;;;4.70;0.93;;;18.10;99.90;;;;;;5137448;27;20194;-84
2022/09/10 13:06:19;;;;;;;6.43;0.90;;;19.20;99.90;;;;;;5137480;27;20190;-87
2022/09/10 13:08:46;;;;;;;1.77;0.70;;;21.00;99.90;;;;;;5138428;27;20199;-86
2022/09/10 13:11:24;;;;;;;1.47;0.70;;;21.20;99.90;;;;;;5137867;27;20195;-84
2022/09/10 13:13:57;;;;;;;0.83;0.60;;;20.80;99.90;;;;;;5138384;27;20259;-85
2022/09/10 13:16:26;;;;;;;1.87;0.80;;;20.80;99.90;;;;;;5139699;27;20185;-85
2022/09/10 13:19:12;;;;;;;1.00;0.60;;;21.10;99.90;;;;;;5140920;27;20226;-85
2022/09/10 13:21:44;;;;;;;1.53;0.87;;;21.20;99.90;;;;;;5095715;27;20199;-84
2022/09/10 13:24:35;;;;;;;1.30;0.70;;;21.30;99.90;;;;;;5137642;27;20240;-83
2022/09/10 13:27:23;;;;;;;0.87;0.57;;;21.90;99.90;;;;;;5138182;27;20258;-84
2022/09/10 13:30:09;;;;;;;0.60;0.60;;;22.20;99.90;;;;;;5122418;27;20195;-84
2022/09/10 13:32:43;;;;;;;1.20;0.53;;;22.10;99.90;;;;;;5138982;27;20194;-84
2022/09/10 13:35:20;;;;;;;1.13;0.60;;;21.20;99.90;;;;;;5137412;27;20639;-86
2022/09/10 13:38:31;;;;;;;1.23;0.67;;;20.50;99.90;;;;;;5137163;27;20177;-82
2022/09/10 13:41:03;;;;;;;1.87;0.50;;;21.60;99.90;;;;;;5058114;28;20203;-84
2022/09/10 13:44:06;;;;;;;1.30;0.77;;;21.70;99.90;;;;;;5058863;28;20194;-85
2022/09/10 13:46:40;;;;;;;0.87;0.50;;;21.70;99.90;;;;;;5117417;27;20235;-82
2022/09/10 13:49:11;;;;;;;1.83;0.53;;;22.00;99.90;;;;;;5137817;27;20216;-84
2022/09/10 13:51:50;;;;;;;2.20;0.60;;;22.20;99.90;;;;;;5136978;27;20208;-84
2022/09/10 13:54:24;;;;;;;0.60;0.57;;;22.10;99.90;;;;;;5138227;27;20184;-83
2022/09/10 13:56:50;;;;;;;1.47;0.70;;;22.20;99.90;;;;;;5137025;27;20183;-85
2022/09/10 13:59:27;;;;;;;1.13;0.50;;;22.50;99.90;;;;;;5138184;27;20307;-83
2022/09/10 14:01:54;;;;;;;0.97;0.60;;;23.30;99.90;;;;;;5138037;27;20188;-83
2022/09/10 14:04:25;;;;;;;0.60;0.60;;;23.70;99.90;;;;;;5136232;27;20180;-85
2022/09/10 14:06:56;;;;;;;1.20;0.57;;;23.90;99.90;;;;;;5136436;28;20179;-83
2022/09/10 14:09:22;;;;;;;1.07;0.73;;;23.90;99.90;;;;;;5137830;28;20187;-83
2022/09/10 14:11:48;;;;;;;1.00;0.60;;;23.30;99.90;;;;;;5135715;28;20199;-85
2022/09/10 14:14:23;;;;;;;1.23;0.60;;;22.20;99.90;;;;;;5138001;28;20266;-85
2022/09/10 14:16:52;;;;;;;0.93;0.60;;;22.20;99.90;;;;;;5138468;28;20581;-85
2022/09/10 14:19:29;;;;;;;1.83;0.60;;;22.10;99.90;;;;;;5138022;28;20629;-83
2022/09/10 14:21:56;;;;;;;1.00;0.70;;;22.60;99.90;;;;;;5136870;28;20278;-84
2022/09/10 14:24:47;;;;;;;1.60;0.50;;;23.40;99.90;;;;;;5136329;28;20583;-86
2022/09/10 14:27:17;;;;;;;1.90;0.87;;;23.20;99.90;;;;;;5137480;28;20171;-85
2022/09/10 14:29:45;;;;;;;1.43;0.70;;;;;;;;;;5138504;27;20641;-83
2022/09/10 14:32:29;;;;;;;1.17;0.70;;;22.10;99.90;;;;;;5142718;27;20192;-86
2022/09/10 14:34:56;;;;;;;2.87;0.90;;;;;;;;;;5142718;27;20171;-84
2022/09/10 14:37:32;;;;;;;1.90;0.73;;;20.80;99.90;;;;;;5140439;27;20171;-83
2022/09/10 14:40:21;;;;;;;0.70;0.60;;;20.90;99.90;;;;;;5141795;27;20192;-83
2022/09/10 14:42:48;;;;;;;3.10;1.00;;;21.80;99.90;;;;;;5130020;27;20215;-85
2022/09/10 14:45:41;;;;;;;1.77;0.83;;;22.10;99.90;;;;;;5140980;27;20234;-86
2022/09/10 14:48:25;;;;;;;1.17;0.70;;;21.90;99.90;;;;;;5140268;27;20184;-85
2022/09/10 14:51:14;;;;;;;2.47;0.90;;;21.90;99.90;;;;;;5140016;27;20207;-84
2022/09/10 14:53:41;;;;;;;1.53;0.60;;;21.90;99.90;;;;;;5139945;27;20565;-84
2022/09/10 14:56:40;;;;;;;1.63;0.70;;;22.20;99.90;;;;;;5139569;27;20219;-84
2022/09/10 14:59:24;;;;;;;2.37;0.73;;;22.80;99.90;;;;;;5140286;27;20202;-84
2022/09/10 15:01:50;;;;;;;1.47;0.90;;;22.30;99.90;;;;;;5139234;27;20574;-84
2022/09/10 15:04:22;;;;;;;2.23;0.97;;;21.30;99.90;;;;;;5140802;27;20172;-85
2022/09/10 15:06:48;;;;;;;2.90;0.90;;;;;;;;;;5140269;27;20272;-87
2022/09/10 15:09:14;;;;;;;1.47;0.70;;;;;;;;;;5141613;27;20218;-85
2022/09/10 15:12:01;;;;;;;2.50;0.70;;;21.20;99.90;;;;;;5142785;27;20197;-85
2022/09/10 15:14:27;;;;;;;1.57;0.77;;;;;;;;;;5140368;27;20638;-86
2022/09/10 15:16:54;;;;;;;1.43;0.70;;;;;;;;;;5141691;27;20173;-86
2022/09/10 15:19:21;;;;;;;3.40;0.83;;;19.90;99.90;;;;;;5142858;27;20203;-85
2022/09/10 15:21:47;;;;;;;2.30;0.80;;;;;;;;;;5141951;27;20208;-85
2022/09/10 15:24:16;;;;;;;2.17;0.90;;;18.20;99.90;;;;;;5145915;27;20187;-85
2022/09/10 15:26:42;;;;;;;0.80;0.70;;;;;;;;;;5147016;27;20178;-84
2022/09/10 15:29:09;;;;;;;1.30;0.90;;;17.60;99.90;;;;;;5146971;27;20179;-86
2022/09/10 15:31:36;;;;;;;1.70;1.00;;;17.50;99.90;;;;;;5145652;27;20198;-83
2022/09/10 15:34:03;;;;;;;1.73;0.93;;;17.30;99.90;;;;;;5142787;27;20181;-84
2022/09/10 15:36:29;;;;;;;2.80;1.00;;;17.40;99.90;;;;;;5141259;27;20185;-85
2022/09/10 15:38:58;;;;;;;1.67;0.87;;;;;;;;;;5143003;27;20224;-85
2022/09/10 15:41:25;;;;;;;1.50;0.80;;;17.50;99.90;;;;;;5142212;27;20200;-85
2022/09/10 15:43:51;;;;;;;2.37;1.30;;;17.40;99.90;;;;;;5140814;27;20174;-83
2022/09/10 15:46:18;;;;;;;2.37;1.37;;;17.40;99.90;;;;;;5141749;27;20177;-84
2022/09/10 15:48:46;;;;;;;2.67;0.80;;;17.50;99.90;;;;;;5142483;27;20177;-84
2022/09/10 15:51:29;;;;;;;2.10;0.90;;;17.20;99.90;;;;;;5142654;27;20283;-84
2022/09/10 15:53:55;;;;;;;2.13;1.00;;;17.00;99.90;;;;;;5138433;27;20542;-84
2022/09/10 15:56:25;;;;;;;1.73;1.00;;;16.90;99.90;;;;;;5140075;27;20180;-83
2022/09/10 15:58:55;;;;;;;0.97;0.83;;;16.90;99.90;;;;;;5139673;27;20217;-86
2022/09/10 16:01:23;;;;;;;2.17;0.90;;;16.90;99.90;;;;;;5139462;27;20193;-84
2022/09/10 16:03:58;;;;;;;1.77;0.70;;;16.90;99.90;;;;;;5138470;27;20185;-84
2022/09/10 16:06:29;;;;;;;1.87;0.90;;;16.80;99.90;;;;;;5139603;27;20181;-83
2022/09/10 16:09:00;;;;;;;2.37;0.80;;;16.90;99.90;;;;;;5138245;27;20649;-84
2022/09/10 16:11:29;;;;;;;0.73;0.70;;;16.80;99.90;;;;;;5138415;27;20206;-84
2022/09/10 16:13:56;;;;;;;1.90;0.60;;;16.70;99.90;;;;;;5138602;27;20184;-85
2022/09/10 16:16:24;;;;;;;1.73;0.90;;;16.60;99.90;;;;;;5138299;27;20550;-84
2022/09/10 16:18:52;;;;;;;3.30;0.83;;;16.50;99.90;;;;;;5139137;27;20276;-83
2022/09/10 16:21:21;;;;;;;2.23;0.90;;;16.40;99.90;;;;;;5138296;27;20665;-83
2022/09/10 16:23:48;;;;;;;1.63;0.93;;;16.40;99.90;;;;;;5138300;27;20181;-83
2022/09/10 16:26:18;;;;;;;2.00;1.20;;;16.40;99.90;;;;;;5138898;27;20622;-84
2022/09/10 16:28:56;;;;;;;2.40;1.63;;;16.40;99.90;;;;;;5139333;27;20243;-84
2022/09/10 16:31:33;;;;;;;2.53;1.43;;;16.40;99.90;;;;;;5137995;27;20239;-84
2022/09/10 16:34:02;;;;;;;4.03;1.40;;;16.40;99.90;;;;;;5137505;27;20178;-85
2022/09/10 16:36:30;;;;;;;2.23;1.37;;;;;;;;;;5139075;27;20190;-84
2022/09/10 16:38:56;;;;;;;4.80;1.73;;;16.20;99.90;;;;;;5141293;27;20203;-84
2022/09/10 16:41:24;;;;;;;2.10;1.10;;;16.20;99.90;;;;;;5140547;27;20190;-84
2022/09/10 16:43:50;;;;;;;2.90;1.23;;;16.20;99.90;;;;;;5140369;27;20181;-85
2022/09/10 16:46:17;;;;;;;2.57;1.20;;;16.10;99.90;;;;;;5140746;27;20179;-87
2022/09/10 16:48:43;;;;;;;3.40;1.67;;;16.10;99.90;;;;;;5140180;27;20246;-84
2022/09/10 16:51:14;;;;;;;3.33;1.63;;;16.00;99.90;;;;;;5140008;27;20200;-85
2022/09/10 16:53:46;;;;;;;4.30;1.63;;;16.00;99.90;;;;;;5139770;27;20178;-86
2022/09/10 16:56:15;;;;;;;2.17;1.30;;;16.00;99.90;;;;;;5140617;27;20182;-83
2022/09/10 16:58:44;;;;;;;1.67;1.20;;;16.00;99.90;;;;;;5143241;27;20227;-85
2022/09/10 17:01:10;;;;;;;5.07;1.90;;;15.90;99.90;;;;;;5143129;27;20201;-84
2022/09/10 17:03:43;;;;;;;2.40;1.30;;;15.80;99.90;;;;;;5142202;27;20167;-85
2022/09/10 17:06:17;;;;;;;2.77;1.20;;;15.80;99.90;;;;;;5141095;27;20175;-85
2022/09/10 17:08:44;;;;;;;3.23;1.50;;;15.80;99.90;;;;;;5141316;27;20216;-84
2022/09/10 17:11:11;;;;;;;3.83;1.33;;;15.70;99.90;;;;;;5139871;27;20198;-84
2022/09/10 17:13:36;;;;;;;1.70;1.10;;;15.70;99.90;;;;;;5141601;27;20175;-85
2022/09/10 17:16:29;;;;;;;3.30;1.37;;;15.70;99.90;;;;;;5142564;27;20174;-84
2022/09/10 17:19:02;;;;;;;4.00;1.73;;;15.70;99.90;;;;;;5139630;27;20214;-86
2022/09/10 17:21:30;;;;;;;4.80;2.70;;;15.60;99.90;;;;;;5141354;27;20218;-86
2022/09/10 17:23:57;;;;;;;3.30;2.20;;;15.60;99.90;;;;;;5143151;27;20182;-85
2022/09/10 17:26:25;;;;;;;36.00;22.07;;;15.50;99.90;;;;;;5143302;27;20163;-86
2022/09/10 17:28:56;;;;;;;5.27;3.00;;;15.50;99.90;;;;;;5139373;27;20632;-82
2022/09/10 17:31:23;;;;;;;14.43;12.87;;;15.40;99.90;;;;;;5139747;27;20198;-86
2022/09/10 17:33:50;;;;;;;1.90;1.37;;;15.40;99.90;;;;;;5140720;27;20177;-85
2022/09/10 17:36:17;;;;;;;2.53;1.13;;;15.40;99.90;;;;;;5139498;27;20183;-85
2022/09/10 17:38:43;;;;;;;2.50;2.30;;;15.30;99.90;;;;;;5139920;27;20688;-84
2022/09/10 17:41:09;;;;;;;3.17;1.60;;;15.20;99.90;;;;;;5144486;27;20192;-84
2022/09/10 17:43:36;;;;;;;1.40;0.77;;;15.20;99.90;;;;;;5140762;27;20175;-84
2022/09/10 17:46:05;;;;;;;1.37;0.87;;;15.20;99.90;;;;;;5142031;27;20176;-86
2022/09/10 17:48:33;;;;;;;2.07;1.10;;;15.20;99.90;;;;;;5140315;27;20175;-85
2022/09/10 17:50:59;;;;;;;2.83;1.53;;;15.10;99.90;;;;;;5140732;27;20198;-83
2022/09/10 17:53:25;;;;;;;2.17;1.30;;;;;;;;;;5140847;27;20204;-84
2022/09/10 17:55:50;;;;;;;1.53;1.20;;;15.10;99.90;;;;;;5142255;27;20179;-85
2022/09/10 17:58:16;;;;;;;3.10;1.00;;;15.00;99.90;;;;;;5140194;27;20203;-83
2022/09/10 18:00:48;;;;;;;1.90;1.13;;;14.90;99.90;;;;;;5141352;27;20174;-85
2022/09/10 18:03:17;;;;;;;4.13;1.40;;;14.80;99.90;;;;;;5142044;27;20182;-85
2022/09/10 18:05:44;;;;;;;2.43;1.67;;;14.80;99.90;;;;;;5142335;27;20538;-84
2022/09/10 18:08:11;;;;;;;6.60;5.13;;;14.80;99.90;;;;;;5143337;27;20190;-84